createdAt,value
2023-05-25T00:00:04.740Z,0.00
2023-05-25T00:01:03.926Z,0.00
2023-05-25T00:02:04.864Z,0.00
2023-05-25T00:03:04.854Z,0.00
2023-05-25T00:04:05.450Z,0.00
2023-05-25T00:05:04.677Z,0.00
2023-05-25T00:06:04.862Z,0.00
2023-05-25T00:07:05.032Z,0.00
2023-05-25T00:08:05.745Z,0.00
2023-05-25T00:09:05.381Z,0.00
2023-05-25T00:10:06.235Z,0.00
2023-05-25T00:11:05.630Z,0.00
2023-05-25T00:12:05.812Z,0.00
2023-05-25T00:13:05.979Z,0.00
2023-05-25T00:14:06.133Z,0.00
2023-05-25T00:15:06.296Z,0.00
2023-05-25T00:16:06.442Z,0.00
2023-05-25T00:17:06.615Z,0.00
2023-05-25T00:18:09.180Z,0.00
2023-05-25T00:19:06.997Z,0.00
2023-05-25T00:20:07.863Z,0.00
2023-05-25T00:21:07.313Z,0.00
2023-05-25T00:22:08.286Z,0.00
2023-05-25T00:23:08.247Z,0.00
2023-05-25T00:24:08.742Z,0.00
2023-05-25T00:25:08.021Z,0.00
2023-05-25T00:26:08.157Z,0.00
2023-05-25T00:27:08.308Z,0.00
2023-05-25T00:28:08.532Z,0.00
2023-05-25T00:29:08.690Z,0.00
2023-05-25T00:30:08.854Z,0.00
2023-05-25T00:31:09.831Z,0.00
2023-05-25T00:32:09.238Z,0.00
2023-05-25T00:33:09.372Z,0.00
2023-05-25T00:34:11.266Z,0.00
2023-05-25T00:35:10.249Z,0.00
2023-05-25T00:36:10.617Z,0.00
2023-05-25T00:37:10.099Z,0.00
2023-05-25T00:38:10.233Z,0.00
2023-05-25T00:39:10.362Z,0.00
2023-05-25T00:40:10.524Z,0.00
2023-05-25T00:41:10.674Z,0.00
2023-05-25T00:42:11.308Z,0.00
2023-05-25T00:43:11.796Z,0.00
2023-05-25T00:44:11.114Z,0.00
2023-05-25T00:45:11.330Z,0.00
2023-05-25T00:46:11.531Z,0.00
2023-05-25T00:47:11.710Z,0.00
2023-05-25T00:48:11.869Z,0.00
2023-05-25T00:49:12.011Z,0.00
2023-05-25T00:50:12.753Z,0.00
2023-05-25T00:51:13.116Z,0.00
2023-05-25T00:52:12.522Z,0.00
2023-05-25T00:53:14.308Z,0.00
2023-05-25T00:54:12.824Z,0.00
2023-05-25T00:55:12.970Z,0.00
2023-05-25T00:56:13.151Z,0.00
2023-05-25T00:57:13.353Z,0.00
2023-05-25T00:58:13.494Z,0.00
2023-05-25T00:59:13.645Z,0.00
2023-05-25T01:00:14.778Z,0.00
2023-05-25T01:01:14.624Z,0.00
2023-05-25T01:02:14.287Z,0.00
2023-05-25T01:03:14.437Z,0.00
2023-05-25T01:04:15.762Z,0.00
2023-05-25T01:05:14.780Z,0.00
2023-05-25T01:06:15.805Z,0.00
2023-05-25T01:07:15.167Z,0.00
2023-05-25T01:08:16.262Z,0.00
2023-05-25T01:09:15.558Z,0.00
2023-05-25T01:10:15.753Z,0.00
2023-05-25T01:11:15.954Z,0.00
2023-05-25T01:12:16.123Z,0.00
2023-05-25T01:13:16.264Z,0.00
2023-05-25T01:14:17.123Z,0.00
2023-05-25T01:15:16.666Z,0.00
2023-05-25T01:16:16.878Z,0.00
2023-05-25T01:17:16.980Z,0.00
2023-05-25T01:18:17.155Z,0.00
2023-05-25T01:19:17.362Z,0.00
2023-05-25T01:20:17.570Z,0.00
2023-05-25T01:21:17.789Z,0.00
2023-05-25T01:22:19.269Z,0.00
2023-05-25T01:23:18.147Z,0.00
2023-05-25T01:24:18.292Z,0.00
2023-05-25T01:25:19.269Z,0.00
2023-05-25T01:26:18.816Z,0.00
2023-05-25T01:27:18.847Z,0.00
2023-05-25T01:28:19.007Z,0.00
2023-05-25T01:29:19.135Z,0.00
2023-05-25T01:30:20.271Z,0.00
2023-05-25T01:31:19.877Z,0.00
2023-05-25T01:32:19.827Z,0.00
2023-05-25T01:33:19.928Z,0.00
2023-05-25T01:34:20.071Z,0.00
2023-05-25T01:35:20.767Z,0.00
2023-05-25T01:36:20.401Z,0.00
2023-05-25T01:37:21.268Z,0.00
2023-05-25T01:38:21.266Z,0.00
2023-05-25T01:39:21.630Z,0.00
2023-05-25T01:40:21.164Z,0.00
2023-05-25T01:41:21.330Z,0.00
2023-05-25T01:42:22.317Z,0.00
2023-05-25T01:43:22.269Z,0.00
2023-05-25T01:44:21.919Z,0.00
2023-05-25T01:45:22.101Z,0.00
2023-05-25T01:46:22.351Z,0.00
2023-05-25T01:47:23.355Z,0.00
2023-05-25T01:48:23.659Z,0.00
2023-05-25T01:49:24.265Z,0.00
2023-05-25T01:50:24.273Z,0.00
2023-05-25T01:51:23.141Z,0.00
2023-05-25T01:52:24.820Z,0.00
2023-05-25T01:53:24.306Z,0.00
2023-05-25T01:54:23.745Z,0.00
2023-05-25T01:55:24.805Z,0.00
2023-05-25T01:56:24.080Z,0.00
2023-05-25T01:57:25.265Z,0.00
2023-05-25T01:58:25.771Z,0.00
2023-05-25T01:59:24.684Z,0.00
2023-05-25T02:00:24.839Z,0.00
2023-05-25T02:01:25.041Z,0.00
2023-05-25T02:02:25.270Z,0.00
2023-05-25T02:03:25.453Z,0.00
2023-05-25T02:04:25.652Z,0.00
2023-05-25T02:05:26.857Z,0.00
2023-05-25T02:06:26.786Z,0.00
2023-05-25T02:07:26.213Z,0.00
2023-05-25T02:08:26.464Z,0.00
2023-05-25T02:09:26.619Z,0.00
2023-05-25T02:10:27.312Z,0.00
2023-05-25T02:11:26.969Z,0.00
2023-05-25T02:12:27.163Z,0.00
2023-05-25T02:13:27.315Z,0.00
2023-05-25T02:14:28.275Z,0.00
2023-05-25T02:15:27.652Z,0.00
2023-05-25T02:16:27.950Z,0.00
2023-05-25T02:17:28.043Z,0.00
2023-05-25T02:18:28.154Z,0.00
2023-05-25T02:19:28.325Z,0.00
2023-05-25T02:20:28.606Z,0.00
2023-05-25T02:21:28.723Z,0.00
2023-05-25T02:22:28.840Z,0.00
2023-05-25T02:23:29.051Z,0.00
2023-05-25T02:24:29.217Z,0.00
2023-05-25T02:25:29.565Z,0.00
2023-05-25T02:26:30.640Z,0.00
2023-05-25T02:27:29.828Z,0.00
2023-05-25T02:28:29.984Z,0.00
2023-05-25T02:29:30.147Z,0.00
2023-05-25T02:30:30.305Z,0.00
2023-05-25T02:31:30.536Z,0.00
2023-05-25T02:32:30.604Z,0.00
2023-05-25T02:33:30.766Z,0.00
2023-05-25T02:34:31.834Z,0.00
2023-05-25T02:35:31.079Z,0.00
2023-05-25T02:36:31.238Z,0.00
2023-05-25T02:37:31.416Z,0.00
2023-05-25T02:38:31.588Z,0.00
2023-05-25T02:39:31.780Z,0.00
2023-05-25T02:40:31.950Z,0.00
2023-05-25T02:41:32.117Z,0.00
2023-05-25T02:42:33.148Z,0.00
2023-05-25T02:43:32.525Z,0.00
2023-05-25T02:44:32.708Z,0.00
2023-05-25T02:45:32.889Z,0.00
2023-05-25T02:46:33.880Z,0.00
2023-05-25T02:47:33.323Z,0.00
2023-05-25T02:48:33.421Z,0.00
2023-05-25T02:49:33.643Z,4.00
2023-05-25T02:50:33.816Z,4.00
2023-05-25T02:51:34.020Z,0.00
2023-05-25T02:52:34.235Z,0.00
2023-05-25T02:53:35.323Z,4.00
2023-05-25T02:54:34.633Z,0.00
2023-05-25T02:55:34.819Z,0.00
2023-05-25T02:56:35.019Z,4.00
2023-05-25T02:57:35.236Z,0.00
2023-05-25T02:58:35.477Z,4.00
2023-05-25T02:59:35.705Z,4.00
2023-05-25T03:00:36.825Z,4.00
2023-05-25T03:01:36.202Z,4.00
2023-05-25T03:02:36.414Z,4.00
2023-05-25T03:03:36.625Z,8.00
2023-05-25T03:04:37.343Z,8.00
2023-05-25T03:05:36.892Z,8.00
2023-05-25T03:06:37.088Z,8.00
2023-05-25T03:07:38.281Z,8.00
2023-05-25T03:08:38.153Z,12.00
2023-05-25T03:09:38.700Z,12.00
2023-05-25T03:10:37.878Z,12.00
2023-05-25T03:11:38.074Z,16.00
2023-05-25T03:12:38.275Z,16.00
2023-05-25T03:13:38.490Z,20.00
2023-05-25T03:14:39.652Z,20.00
2023-05-25T03:15:38.826Z,20.00
2023-05-25T03:16:39.122Z,24.00
2023-05-25T03:17:39.312Z,28.00
2023-05-25T03:18:40.781Z,32.00
2023-05-25T03:19:39.596Z,32.00
2023-05-25T03:20:39.913Z,32.00
2023-05-25T03:21:40.830Z,36.00
2023-05-25T03:22:40.833Z,40.00
2023-05-25T03:23:40.385Z,44.00
2023-05-25T03:24:40.630Z,48.00
2023-05-25T03:25:40.809Z,52.00
2023-05-25T03:26:41.110Z,56.00
2023-05-25T03:27:42.194Z,60.00
2023-05-25T03:28:41.343Z,68.00
2023-05-25T03:29:42.292Z,72.00
2023-05-25T03:30:41.701Z,76.00
2023-05-25T03:31:41.924Z,80.00
2023-05-25T03:32:42.152Z,84.00
2023-05-25T03:33:42.328Z,92.00
2023-05-25T03:34:42.506Z,96.00
2023-05-25T03:35:43.117Z,100.00
2023-05-25T03:36:42.797Z,100.00
2023-05-25T03:37:42.997Z,104.00
2023-05-25T03:38:43.829Z,108.00
2023-05-25T03:39:44.321Z,112.00
2023-05-25T03:40:43.543Z,120.00
2023-05-25T03:41:44.683Z,128.00
2023-05-25T03:42:44.344Z,140.00
2023-05-25T03:43:44.085Z,148.00
2023-05-25T03:44:44.821Z,160.00
2023-05-25T03:45:46.456Z,172.00
2023-05-25T03:46:45.875Z,184.00
2023-05-25T03:47:44.784Z,196.00
2023-05-25T03:48:44.928Z,204.00
2023-05-25T03:49:45.847Z,216.00
2023-05-25T03:50:45.373Z,232.00
2023-05-25T03:51:46.316Z,252.00
2023-05-25T03:52:45.710Z,268.00
2023-05-25T03:53:46.821Z,288.00
2023-05-25T03:54:46.089Z,300.00
2023-05-25T03:55:46.390Z,316.00
2023-05-25T03:56:46.398Z,332.00
2023-05-25T03:57:46.574Z,348.00
2023-05-25T03:58:47.286Z,368.00
2023-05-25T03:59:46.971Z,388.00
2023-05-25T04:00:47.134Z,404.00
2023-05-25T04:01:48.289Z,420.00
2023-05-25T04:02:47.469Z,436.00
2023-05-25T04:03:47.863Z,456.00
2023-05-25T04:04:48.851Z,472.00
2023-05-25T04:05:48.793Z,492.00
2023-05-25T04:06:48.042Z,512.00
2023-05-25T04:07:48.186Z,536.00
2023-05-25T04:08:48.325Z,556.00
2023-05-25T04:09:48.841Z,576.00
2023-05-25T04:10:49.335Z,596.00
2023-05-25T04:11:48.823Z,616.00
2023-05-25T04:12:48.959Z,636.00
2023-05-25T04:13:49.128Z,660.00
2023-05-25T04:14:49.353Z,680.00
2023-05-25T04:15:49.532Z,700.00
2023-05-25T04:16:49.718Z,724.00
2023-05-25T04:17:49.887Z,744.00
2023-05-25T04:18:50.832Z,764.00
2023-05-25T04:19:50.845Z,788.00
2023-05-25T04:20:51.164Z,808.00
2023-05-25T04:21:50.532Z,832.00
2023-05-25T04:22:52.666Z,860.00
2023-05-25T04:23:51.894Z,880.00
2023-05-25T04:24:51.132Z,908.00
2023-05-25T04:25:51.336Z,940.00
2023-05-25T04:26:52.553Z,968.00
2023-05-25T04:27:52.294Z,996.00
2023-05-25T04:28:52.806Z,1020.00
2023-05-25T04:29:52.793Z,1052.00
2023-05-25T04:30:52.793Z,1116.00
2023-05-25T04:31:52.839Z,1280.00
2023-05-25T04:32:52.397Z,1516.00
2023-05-25T04:33:53.307Z,1460.00
2023-05-25T04:34:52.680Z,1892.00
2023-05-25T04:35:52.858Z,2068.00
2023-05-25T04:36:53.034Z,1536.00
2023-05-25T04:37:53.195Z,1576.00
2023-05-25T04:38:53.365Z,2776.00
2023-05-25T04:39:53.538Z,4620.00
2023-05-25T04:40:53.715Z,3896.00
2023-05-25T04:41:55.810Z,1960.00
2023-05-25T04:42:54.099Z,2924.00
2023-05-25T04:44:07.901Z,2260.00
2023-05-25T04:44:56.324Z,1740.00
2023-05-25T04:45:54.632Z,1820.00
2023-05-25T04:46:57.311Z,2332.00
2023-05-25T04:47:54.855Z,2316.00
2023-05-25T04:48:55.043Z,2240.00
2023-05-25T04:49:55.805Z,2136.00
2023-05-25T04:50:55.451Z,1704.00
2023-05-25T04:51:56.309Z,1744.00
2023-05-25T04:52:55.844Z,1820.00
2023-05-25T04:53:56.105Z,2608.00
2023-05-25T04:54:57.311Z,3940.00
2023-05-25T04:55:56.440Z,5240.00
2023-05-25T04:56:56.854Z,4024.00
2023-05-25T04:57:57.348Z,2808.00
2023-05-25T04:58:57.842Z,2996.00
2023-05-25T04:59:57.125Z,2480.00
2023-05-25T05:00:58.303Z,3456.00
2023-05-25T05:01:57.450Z,3692.00
2023-05-25T05:02:57.675Z,2188.00
2023-05-25T05:03:58.904Z,1876.00
2023-05-25T05:04:58.813Z,1692.00
2023-05-25T05:05:58.813Z,1584.00
2023-05-25T05:06:59.186Z,1464.00
2023-05-25T05:07:59.375Z,1308.00
2023-05-25T05:08:59.310Z,1200.00
2023-05-25T05:09:58.713Z,1124.00
2023-05-25T05:10:58.896Z,1084.00
2023-05-25T05:11:59.816Z,1044.00
2023-05-25T05:12:59.217Z,1012.00
2023-05-25T05:13:59.408Z,992.00
2023-05-25T05:14:59.596Z,948.00
2023-05-25T05:16:00.352Z,884.00
2023-05-25T05:17:00.178Z,812.00
2023-05-25T05:18:00.206Z,760.00
2023-05-25T05:19:01.357Z,728.00
2023-05-25T05:20:02.715Z,712.00
2023-05-25T05:21:00.767Z,716.00
2023-05-25T05:22:00.948Z,704.00
2023-05-25T05:23:01.099Z,692.00
2023-05-25T05:24:01.829Z,672.00
2023-05-25T05:25:01.448Z,636.00
2023-05-25T05:26:02.353Z,596.00
2023-05-25T05:27:04.006Z,564.00
2023-05-25T05:28:02.821Z,552.00
2023-05-25T05:29:02.101Z,552.00
2023-05-25T05:30:02.867Z,560.00
2023-05-25T05:31:03.342Z,584.00
2023-05-25T05:32:02.878Z,612.00
2023-05-25T05:33:03.142Z,648.00
2023-05-25T05:34:03.161Z,684.00
2023-05-25T05:35:03.226Z,728.00
2023-05-25T05:36:03.364Z,756.00
2023-05-25T05:37:04.362Z,784.00
2023-05-25T05:38:03.796Z,828.00
2023-05-25T05:39:03.933Z,868.00
2023-05-25T05:40:04.859Z,932.00
2023-05-25T05:41:04.236Z,1016.00
2023-05-25T05:42:05.377Z,1148.00
2023-05-25T05:43:05.321Z,1260.00
2023-05-25T05:44:04.814Z,1332.00
2023-05-25T05:45:05.987Z,1400.00
2023-05-25T05:46:05.113Z,1588.00
2023-05-25T05:47:05.288Z,1772.00
2023-05-25T05:48:06.324Z,2260.00
2023-05-25T05:49:05.580Z,2736.00
2023-05-25T05:50:05.775Z,2904.00
2023-05-25T05:51:06.860Z,2828.00
2023-05-25T05:52:06.115Z,2608.00
2023-05-25T05:53:06.860Z,2364.00
2023-05-25T05:54:06.499Z,2124.00
2023-05-25T05:55:06.645Z,1920.00
2023-05-25T05:56:06.795Z,1928.00
2023-05-25T05:57:06.908Z,2264.00
2023-05-25T05:58:07.055Z,2704.00
2023-05-25T05:59:08.829Z,2760.00
2023-05-25T06:00:07.431Z,2824.00
2023-05-25T06:01:07.623Z,2972.00
2023-05-25T06:02:07.870Z,2996.00
2023-05-25T06:03:07.972Z,3040.00
2023-05-25T06:04:08.062Z,3024.00
2023-05-25T06:05:08.922Z,3020.00
2023-05-25T06:06:08.532Z,3360.00
2023-05-25T06:07:08.592Z,3020.00
2023-05-25T06:08:08.748Z,2932.00
2023-05-25T06:09:08.936Z,2896.00
2023-05-25T06:10:09.128Z,2908.00
2023-05-25T06:11:09.315Z,3016.00
2023-05-25T06:12:10.330Z,3012.00
2023-05-25T06:13:09.598Z,2856.00
2023-05-25T06:14:10.831Z,2608.00
2023-05-25T06:15:09.950Z,2360.00
2023-05-25T06:16:10.341Z,2144.00
2023-05-25T06:17:11.255Z,1940.00
2023-05-25T06:18:11.404Z,1836.00
2023-05-25T06:19:10.552Z,1776.00
2023-05-25T06:20:11.265Z,1628.00
2023-05-25T06:21:13.037Z,1524.00
2023-05-25T06:22:11.022Z,1364.00
2023-05-25T06:23:11.192Z,1252.00
2023-05-25T06:24:11.344Z,1240.00
2023-05-25T06:25:11.526Z,1240.00
2023-05-25T06:26:11.695Z,1256.00
2023-05-25T06:27:11.893Z,1316.00
2023-05-25T06:28:12.872Z,1364.00
2023-05-25T06:29:14.819Z,1364.00
2023-05-25T06:30:12.465Z,1376.00
2023-05-25T06:31:12.666Z,1360.00
2023-05-25T06:32:12.951Z,1296.00
2023-05-25T06:33:13.063Z,1196.00
2023-05-25T06:34:13.870Z,1080.00
2023-05-25T06:35:13.556Z,984.00
2023-05-25T06:36:13.596Z,912.00
2023-05-25T06:37:14.898Z,876.00
2023-05-25T06:38:15.340Z,904.00
2023-05-25T06:39:14.060Z,972.00
2023-05-25T06:40:14.179Z,1060.00
2023-05-25T06:41:14.361Z,1180.00
2023-05-25T06:42:14.533Z,1260.00
2023-05-25T06:43:15.343Z,1332.00
2023-05-25T06:44:14.851Z,1444.00
2023-05-25T06:45:15.054Z,1504.00
2023-05-25T06:46:15.877Z,1580.00
2023-05-25T06:47:15.506Z,1560.00
2023-05-25T06:48:16.398Z,1564.00
2023-05-25T06:49:17.331Z,1592.00
2023-05-25T06:50:15.961Z,1544.00
2023-05-25T06:51:16.149Z,1472.00
2023-05-25T06:52:17.341Z,1440.00
2023-05-25T06:53:16.486Z,1428.00
2023-05-25T06:54:16.654Z,1356.00
2023-05-25T06:55:17.843Z,1240.00
2023-05-25T06:56:17.705Z,1176.00
2023-05-25T06:57:17.236Z,1180.00
2023-05-25T06:58:18.393Z,1268.00
2023-05-25T06:59:17.516Z,1292.00
2023-05-25T07:00:19.202Z,1312.00
2023-05-25T07:01:18.821Z,1332.00
2023-05-25T07:02:18.048Z,1332.00
2023-05-25T07:03:18.218Z,1316.00
2023-05-25T07:04:18.408Z,1308.00
2023-05-25T07:05:18.639Z,1396.00
2023-05-25T07:06:18.897Z,1368.00
2023-05-25T07:07:18.944Z,1376.00
2023-05-25T07:08:19.112Z,1312.00
2023-05-25T07:09:20.844Z,1284.00
2023-05-25T07:10:19.462Z,1312.00
2023-05-25T07:11:19.630Z,1332.00
2023-05-25T07:12:19.841Z,1364.00
2023-05-25T07:13:20.856Z,1336.00
2023-05-25T07:14:20.144Z,1300.00
2023-05-25T07:15:20.344Z,1276.00
2023-05-25T07:16:20.586Z,1320.00
2023-05-25T07:17:20.763Z,1432.00
2023-05-25T07:18:21.838Z,1568.00
2023-05-25T07:19:21.106Z,1640.00
2023-05-25T07:20:22.273Z,1628.00
2023-05-25T07:21:21.437Z,1560.00
2023-05-25T07:22:21.604Z,1548.00
2023-05-25T07:23:23.350Z,1532.00
2023-05-25T07:24:21.987Z,1580.00
2023-05-25T07:25:22.890Z,1764.00
2023-05-25T07:26:22.305Z,2172.00
2023-05-25T07:27:23.389Z,2308.00
2023-05-25T07:28:22.659Z,2316.00
2023-05-25T07:29:22.836Z,2140.00
2023-05-25T07:30:23.909Z,2452.00
2023-05-25T07:31:23.221Z,2824.00
2023-05-25T07:32:23.445Z,3036.00
2023-05-25T07:33:23.613Z,2916.00
2023-05-25T07:34:27.835Z,3020.00
2023-05-25T07:35:25.853Z,3060.00
2023-05-25T07:36:25.045Z,3316.00
2023-05-25T07:37:24.316Z,3840.00
2023-05-25T07:38:24.394Z,4160.00
2023-05-25T07:39:25.395Z,4480.00
2023-05-25T07:40:24.662Z,4952.00
2023-05-25T07:41:25.401Z,5044.00
2023-05-25T07:42:24.962Z,4440.00
2023-05-25T07:43:26.103Z,3392.00
2023-05-25T07:44:25.216Z,3292.00
2023-05-25T07:45:25.892Z,3276.00
2023-05-25T07:46:25.601Z,3492.00
2023-05-25T07:47:27.908Z,3760.00
2023-05-25T07:48:25.936Z,4080.00
2023-05-25T07:49:26.899Z,3428.00
2023-05-25T07:50:26.861Z,2756.00
2023-05-25T07:51:26.512Z,2420.00
2023-05-25T07:52:26.652Z,2204.00
2023-05-25T07:53:26.908Z,2256.00
2023-05-25T07:54:26.970Z,2352.00
2023-05-25T07:55:27.124Z,2536.00
2023-05-25T07:56:28.863Z,2100.00
2023-05-25T07:57:28.356Z,1952.00
2023-05-25T07:58:28.335Z,1920.00
2023-05-25T07:59:28.758Z,2056.00
2023-05-25T08:00:27.886Z,2360.00
2023-05-25T08:01:28.075Z,2652.00
2023-05-25T08:02:28.354Z,3008.00
2023-05-25T08:03:39.536Z,2912.00
2023-05-25T08:04:32.423Z,2724.00
2023-05-25T08:05:28.825Z,2528.00
2023-05-25T08:06:29.000Z,2576.00
2023-05-25T08:07:29.208Z,2212.00
2023-05-25T08:08:29.374Z,2020.00
2023-05-25T08:09:29.527Z,1776.00
2023-05-25T08:10:29.732Z,1624.00
2023-05-25T08:11:30.414Z,1460.00
2023-05-25T08:12:42.416Z,1380.00
2023-05-25T08:13:32.256Z,1364.00
2023-05-25T08:14:30.387Z,1376.00
2023-05-25T08:15:31.400Z,1308.00
2023-05-25T08:16:31.425Z,1236.00
2023-05-25T08:17:30.975Z,1164.00
2023-05-25T08:18:31.020Z,1132.00
2023-05-25T08:19:31.202Z,1108.00
2023-05-25T08:20:31.885Z,1060.00
2023-05-25T08:21:34.649Z,1048.00
2023-05-25T08:22:32.692Z,1040.00
2023-05-25T08:23:31.837Z,1044.00
2023-05-25T08:24:31.978Z,1080.00
2023-05-25T08:25:32.148Z,1120.00
2023-05-25T08:26:45.388Z,1128.00
2023-05-25T08:27:36.012Z,1168.00
2023-05-25T08:28:33.608Z,1160.00
2023-05-25T08:29:32.730Z,1128.00
2023-05-25T08:30:32.914Z,1108.00
2023-05-25T08:31:34.423Z,1116.00
2023-05-25T08:32:33.300Z,1132.00
2023-05-25T08:33:33.441Z,1164.00
2023-05-25T08:34:34.401Z,1168.00
2023-05-25T08:35:33.830Z,1148.00
2023-05-25T08:36:34.864Z,1148.00
2023-05-25T08:37:34.905Z,1192.00
2023-05-25T08:38:35.370Z,1260.00
2023-05-25T08:39:35.089Z,1352.00
2023-05-25T08:40:35.695Z,1468.00
2023-05-25T08:41:35.858Z,1580.00
2023-05-25T08:42:35.130Z,1660.00
2023-05-25T08:43:35.320Z,1620.00
2023-05-25T08:44:35.507Z,1604.00
2023-05-25T08:45:56.671Z,1576.00
2023-05-25T08:46:36.411Z,1520.00
2023-05-25T08:47:35.974Z,1496.00
2023-05-25T08:48:41.561Z,1460.00
2023-05-25T08:49:38.907Z,1424.00
2023-05-25T08:50:36.539Z,1412.00
2023-05-25T08:51:37.889Z,1376.00
2023-05-25T08:52:36.891Z,1352.00
2023-05-25T08:53:37.094Z,1284.00
2023-05-25T08:54:37.360Z,1268.00
2023-05-25T08:55:37.951Z,1284.00
2023-05-25T08:56:38.371Z,1336.00
2023-05-25T08:57:37.904Z,1380.00
2023-05-25T08:58:38.086Z,1492.00
2023-05-25T08:59:38.274Z,1632.00
2023-05-25T09:00:38.468Z,1620.00
2023-05-25T09:01:38.676Z,1540.00
2023-05-25T09:02:39.780Z,1440.00
2023-05-25T09:03:39.108Z,1324.00
2023-05-25T09:04:39.157Z,1252.00
2023-05-25T09:05:39.331Z,1200.00
2023-05-25T09:06:41.380Z,1184.00
2023-05-25T09:07:40.407Z,1208.00
2023-05-25T09:08:39.901Z,1248.00
2023-05-25T09:09:40.088Z,1348.00
2023-05-25T09:10:40.909Z,1388.00
2023-05-25T09:11:42.171Z,1448.00
2023-05-25T09:12:41.656Z,1420.00
2023-05-25T09:13:40.775Z,1408.00
2023-05-25T09:14:41.414Z,1392.00
2023-05-25T09:15:41.086Z,1412.00
2023-05-25T09:16:41.230Z,1448.00
2023-05-25T09:17:41.675Z,1476.00
2023-05-25T09:18:42.377Z,1448.00
2023-05-25T09:19:41.729Z,1372.00
2023-05-25T09:20:45.066Z,1328.00
2023-05-25T09:21:42.034Z,1336.00
2023-05-25T09:22:42.210Z,1396.00
2023-05-25T09:23:42.931Z,1464.00
2023-05-25T09:24:42.581Z,1484.00
2023-05-25T09:25:43.447Z,1476.00
2023-05-25T09:26:42.848Z,1424.00
2023-05-25T09:27:43.021Z,1408.00
2023-05-25T09:28:43.187Z,1452.00
2023-05-25T09:29:43.376Z,1544.00
2023-05-25T09:30:43.799Z,1636.00
2023-05-25T09:31:44.443Z,1652.00
2023-05-25T09:32:44.474Z,1672.00
2023-05-25T09:33:44.008Z,1688.00
2023-05-25T09:34:44.187Z,1668.00
2023-05-25T09:35:46.397Z,1684.00
2023-05-25T09:36:45.420Z,1732.00
2023-05-25T09:37:44.878Z,1828.00
2023-05-25T09:38:45.080Z,1920.00
2023-05-25T09:39:45.480Z,1892.00
2023-05-25T09:40:45.439Z,1856.00
2023-05-25T09:41:45.299Z,1784.00
2023-05-25T09:42:45.485Z,1740.00
2023-05-25T09:43:54.777Z,1676.00
2023-05-25T09:44:47.897Z,1624.00
2023-05-25T09:45:46.048Z,1488.00
2023-05-25T09:46:46.305Z,1348.00
2023-05-25T09:47:46.387Z,1260.00
2023-05-25T09:48:47.417Z,1208.00
2023-05-25T09:49:46.698Z,1208.00
2023-05-25T09:50:49.712Z,1304.00
2023-05-25T09:51:48.931Z,1392.00
2023-05-25T09:52:47.211Z,1420.00
2023-05-25T09:53:48.896Z,1476.00
2023-05-25T09:54:48.263Z,1528.00
2023-05-25T09:55:53.820Z,1576.00
2023-05-25T09:56:49.885Z,1636.00
2023-05-25T09:57:48.168Z,1684.00
2023-05-25T09:58:48.319Z,1708.00
2023-05-25T09:59:48.506Z,1792.00
2023-05-25T10:00:48.720Z,1740.00
2023-05-25T10:01:49.438Z,1680.00
2023-05-25T10:02:49.096Z,1612.00
2023-05-25T10:04:02.801Z,1568.00
2023-05-25T10:04:51.525Z,1528.00
2023-05-25T10:05:49.695Z,1432.00
2023-05-25T10:06:49.940Z,1312.00
2023-05-25T10:07:50.102Z,1232.00
2023-05-25T10:08:50.950Z,1228.00
2023-05-25T10:09:50.387Z,1196.00
2023-05-25T10:10:50.574Z,1176.00
2023-05-25T10:11:50.737Z,1152.00
2023-05-25T10:12:50.924Z,1136.00
2023-05-25T10:13:51.076Z,1156.00
2023-05-25T10:14:51.312Z,1168.00
2023-05-25T10:15:51.465Z,1168.00
2023-05-25T10:16:52.400Z,1204.00
2023-05-25T10:17:51.872Z,1244.00
2023-05-25T10:18:51.984Z,1244.00
2023-05-25T10:19:52.919Z,1148.00
2023-05-25T10:20:52.451Z,1120.00
2023-05-25T10:21:52.538Z,1040.00
2023-05-25T10:22:52.736Z,1020.00
2023-05-25T10:23:53.435Z,1044.00
2023-05-25T10:24:53.933Z,1064.00
2023-05-25T10:25:53.351Z,1132.00
2023-05-25T10:26:53.508Z,1144.00
2023-05-25T10:27:54.503Z,1184.00
2023-05-25T10:28:55.439Z,1260.00
2023-05-25T10:29:54.909Z,1336.00
2023-05-25T10:30:54.916Z,1412.00
2023-05-25T10:31:54.441Z,1444.00
2023-05-25T10:32:55.437Z,1452.00
2023-05-25T10:33:54.845Z,1476.00
2023-05-25T10:34:55.982Z,1536.00
2023-05-25T10:36:03.083Z,1552.00
2023-05-25T10:36:57.438Z,1532.00
2023-05-25T10:37:55.660Z,1492.00
2023-05-25T10:38:56.445Z,1396.00
2023-05-25T10:39:57.410Z,1372.00
2023-05-25T10:40:56.461Z,1432.00
2023-05-25T10:41:56.378Z,1504.00
2023-05-25T10:42:56.545Z,1528.00
2023-05-25T10:43:57.405Z,1596.00
2023-05-25T10:44:56.890Z,1636.00
2023-05-25T10:45:57.625Z,1712.00
2023-05-25T10:46:57.252Z,1708.00
2023-05-25T10:47:57.507Z,1748.00
2023-05-25T10:48:57.658Z,1844.00
2023-05-25T10:49:57.956Z,1888.00
2023-05-25T10:50:58.032Z,1884.00
2023-05-25T10:51:58.189Z,1836.00
2023-05-25T10:52:58.381Z,1808.00
2023-05-25T10:53:58.541Z,1776.00
2023-05-25T10:54:58.741Z,1764.00
2023-05-25T10:55:58.941Z,1836.00
2023-05-25T10:56:59.918Z,1804.00
2023-05-25T10:57:59.324Z,1788.00
2023-05-25T10:58:59.525Z,1760.00
2023-05-25T10:59:59.930Z,1772.00
2023-05-25T11:01:00.442Z,1684.00
2023-05-25T11:02:00.048Z,1600.00
2023-05-25T11:03:00.238Z,1560.00
2023-05-25T11:04:00.936Z,1512.00
2023-05-25T11:05:00.502Z,1480.00
2023-05-25T11:06:00.692Z,1492.00
2023-05-25T11:07:00.873Z,1576.00
2023-05-25T11:08:01.942Z,1704.00
2023-05-25T11:09:01.200Z,1848.00
2023-05-25T11:10:01.433Z,1908.00
2023-05-25T11:11:01.667Z,1988.00
2023-05-25T11:12:02.413Z,2100.00
2023-05-25T11:13:02.911Z,2052.00
2023-05-25T11:14:02.198Z,2100.00
2023-05-25T11:15:02.366Z,2124.00
2023-05-25T11:16:03.553Z,2132.00
2023-05-25T11:17:02.688Z,2148.00
2023-05-25T11:18:03.481Z,2100.00
2023-05-25T11:19:03.011Z,2072.00
2023-05-25T11:20:03.959Z,2052.00
2023-05-25T11:21:04.945Z,2000.00
2023-05-25T11:22:03.994Z,2024.00
2023-05-25T11:23:03.672Z,2000.00
2023-05-25T11:24:03.908Z,2008.00
2023-05-25T11:25:03.981Z,1980.00
2023-05-25T11:26:04.951Z,1908.00
2023-05-25T11:27:05.358Z,1892.00
2023-05-25T11:28:04.509Z,1972.00
2023-05-25T11:29:05.417Z,1964.00
2023-05-25T11:30:05.422Z,1968.00
2023-05-25T11:31:05.495Z,1912.00
2023-05-25T11:32:05.228Z,1836.00
2023-05-25T11:33:05.503Z,1736.00
2023-05-25T11:34:06.461Z,1684.00
2023-05-25T11:35:06.459Z,1664.00
2023-05-25T11:36:06.460Z,1684.00
2023-05-25T11:37:06.139Z,1672.00
2023-05-25T11:38:06.926Z,1752.00
2023-05-25T11:39:17.021Z,1776.00
2023-05-25T11:40:08.595Z,1760.00
2023-05-25T11:41:06.712Z,1680.00
2023-05-25T11:42:07.047Z,1644.00
2023-05-25T11:43:07.066Z,1584.00
2023-05-25T11:44:07.973Z,1572.00
2023-05-25T11:45:07.525Z,1624.00
2023-05-25T11:46:07.671Z,1636.00
2023-05-25T11:47:07.777Z,1680.00
2023-05-25T11:48:08.033Z,1656.00
2023-05-25T11:49:08.107Z,1644.00
2023-05-25T11:50:08.315Z,1580.00
2023-05-25T11:51:09.921Z,1576.00
2023-05-25T11:52:09.470Z,1612.00
2023-05-25T11:53:08.928Z,1604.00
2023-05-25T11:54:09.129Z,1644.00
2023-05-25T11:55:09.918Z,1676.00
2023-05-25T11:56:09.485Z,1676.00
2023-05-25T11:57:09.589Z,1624.00
2023-05-25T11:58:10.458Z,1584.00
2023-05-25T11:59:09.995Z,1512.00
2023-05-25T12:00:10.523Z,1504.00
2023-05-25T12:01:10.324Z,1468.00
2023-05-25T12:02:11.461Z,1488.00
2023-05-25T12:03:10.857Z,1456.00
2023-05-25T12:04:11.028Z,1420.00
2023-05-25T12:05:12.960Z,1412.00
2023-05-25T12:06:11.334Z,1456.00
2023-05-25T12:07:11.977Z,1520.00
2023-05-25T12:08:12.468Z,1560.00
2023-05-25T12:09:11.855Z,1628.00
2023-05-25T12:10:13.444Z,1724.00
2023-05-25T12:11:12.259Z,1876.00
2023-05-25T12:12:12.439Z,2036.00
2023-05-25T12:13:12.603Z,2876.00
2023-05-25T12:14:12.754Z,2352.00
2023-05-25T12:15:12.916Z,2492.00
2023-05-25T12:16:13.923Z,2684.00
2023-05-25T12:17:13.257Z,2716.00
2023-05-25T12:18:14.036Z,2744.00
2023-05-25T12:19:14.493Z,2812.00
2023-05-25T12:20:15.585Z,2796.00
2023-05-25T12:21:13.874Z,2748.00
2023-05-25T12:22:14.481Z,2672.00
2023-05-25T12:23:14.188Z,2612.00
2023-05-25T12:24:14.981Z,2552.00
2023-05-25T12:25:15.470Z,2468.00
2023-05-25T12:26:15.470Z,2448.00
2023-05-25T12:27:15.422Z,2356.00
2023-05-25T12:28:15.494Z,2296.00
2023-05-25T12:29:15.309Z,2264.00